Time;durP1;ratioP1;P1;durP2;ratioP2;P2;SDS_P1;SDS_P2;PMS_P1;PMS_P2;Temp;Humidity;BMP_temperature;BMP_pressure;BME280_temperature;BME280_humidity;BME280_pressure;Samples;Min_cycle;Max_cycle;Signal;HPM_P1;HPM_P2
2021/06/13 00:01:12;;;;;;;3.10;2.90;;;14.90;98.50;;;;;;5052977;28;20183;-73
2021/06/13 00:03:38;;;;;;;3.45;3.15;;;14.90;98.50;;;;;;5049424;28;20221;-73
2021/06/13 00:06:04;;;;;;;3.83;3.50;;;14.80;98.50;;;;;;5049330;28;20176;-73
2021/06/13 00:08:30;;;;;;;2.90;2.78;;;14.80;98.50;;;;;;5048684;28;20652;-73
2021/06/13 00:10:57;;;;;;;3.17;2.88;;;14.80;98.50;;;;;;5049189;28;20726;-73
2021/06/13 00:13:23;;;;;;;3.28;3.00;;;14.80;98.50;;;;;;5050239;28;20677;-73
2021/06/13 00:15:49;;;;;;;3.63;3.38;;;14.80;98.50;;;;;;5048356;28;20725;-73
2021/06/13 00:18:15;;;;;;;3.50;3.15;;;14.80;98.50;;;;;;5047759;28;20260;-73
2021/06/13 00:20:41;;;;;;;3.42;3.25;;;14.80;98.50;;;;;;5052187;28;20195;-73
2021/06/13 00:23:07;;;;;;;4.22;3.63;;;14.80;98.50;;;;;;5052544;28;20193;-73
2021/06/13 00:25:33;;;;;;;3.22;2.92;;;14.70;98.50;;;;;;5047439;28;20217;-73
2021/06/13 00:27:59;;;;;;;3.42;3.17;;;14.70;98.50;;;;;;5051121;28;20199;-73
2021/06/13 00:30:25;;;;;;;3.00;2.90;;;14.70;98.50;;;;;;5047887;28;20183;-73
2021/06/13 00:32:51;;;;;;;3.45;3.00;;;14.70;98.50;;;;;;5056607;28;20187;-73
2021/06/13 00:35:20;;;;;;;3.08;2.88;;;14.60;98.50;;;;;;5049575;28;20187;-73
2021/06/13 00:37:46;;;;;;;3.15;2.95;;;14.70;98.50;;;;;;5050482;28;20252;-73
2021/06/13 00:40:12;;;;;;;3.25;3.15;;;14.60;98.50;;;;;;5053519;28;20272;-74
2021/06/13 00:42:39;;;;;;;2.67;2.58;;;14.60;98.50;;;;;;5050942;28;20184;-73
2021/06/13 00:45:06;;;;;;;3.22;3.03;;;14.60;98.50;;;;;;5052988;28;20188;-72
2021/06/13 00:47:32;;;;;;;3.35;3.05;;;14.50;98.50;;;;;;5048933;28;20697;-72
2021/06/13 00:49:58;;;;;;;3.40;3.20;;;14.50;98.50;;;;;;5045996;28;20274;-72
2021/06/13 00:52:24;;;;;;;3.55;3.22;;;14.50;98.50;;;;;;5048269;28;20184;-72
2021/06/13 00:54:50;;;;;;;3.47;3.17;;;14.50;98.50;;;;;;5047999;28;20184;-73
2021/06/13 00:57:16;;;;;;;3.00;2.90;;;14.40;98.50;;;;;;5049284;28;20218;-73
2021/06/13 00:59:42;;;;;;;2.92;2.78;;;14.40;98.50;;;;;;5048295;28;20190;-73
2021/06/13 01:02:07;;;;;;;2.75;2.65;;;14.40;98.50;;;;;;5049958;28;20571;-73
2021/06/13 01:04:33;;;;;;;2.63;2.42;;;14.40;98.50;;;;;;5046415;28;20258;-72
2021/06/13 01:07:08;;;;;;;2.60;2.50;;;14.40;98.50;;;;;;5049826;28;20210;-73
2021/06/13 01:09:39;;;;;;;2.15;2.08;;;14.40;98.50;;;;;;5052309;28;20206;-72
2021/06/13 01:12:21;;;;;;;5.25;2.80;;;14.30;98.50;;;;;;5052781;28;20188;-73
2021/06/13 01:15:09;;;;;;;2.85;2.65;;;14.30;98.50;;;;;;5042674;28;20185;-73
2021/06/13 01:17:49;;;;;;;4.13;2.67;;;14.30;98.50;;;;;;5045635;28;20203;-74
2021/06/13 01:20:22;;;;;;;2.65;2.58;;;14.30;98.50;;;;;;5040368;28;20653;-73
2021/06/13 01:23:02;;;;;;;2.70;2.60;;;14.30;98.50;;;;;;5051548;28;20253;-74
2021/06/13 01:25:55;;;;;;;2.25;2.15;;;14.20;98.50;;;;;;5049632;28;20702;-74
2021/06/13 01:28:42;;;;;;;2.97;2.88;;;14.20;98.50;;;;;;5041805;28;20260;-74
2021/06/13 01:31:08;;;;;;;2.47;2.38;;;14.20;98.50;;;;;;5050094;28;20183;-74
2021/06/13 01:33:36;;;;;;;2.85;2.63;;;14.10;98.50;;;;;;5049761;28;20617;-75
2021/06/13 01:36:03;;;;;;;3.53;2.58;;;14.10;98.50;;;;;;5048847;28;20190;-74
2021/06/13 01:38:30;;;;;;;2.47;2.38;;;14.10;98.50;;;;;;5051013;28;20290;-74
2021/06/13 01:41:01;;;;;;;2.97;2.78;;;14.10;98.50;;;;;;5051627;28;20195;-74
2021/06/13 01:43:29;;;;;;;2.67;2.47;;;14.10;98.50;;;;;;5048997;28;20261;-74
2021/06/13 01:45:57;;;;;;;2.53;2.42;;;14.10;98.50;;;;;;5052376;28;20180;-74
2021/06/13 01:48:24;;;;;;;3.15;3.05;;;14.20;98.50;;;;;;5027480;28;20187;-73
2021/06/13 01:50:50;;;;;;;2.85;2.65;;;14.20;98.50;;;;;;5056010;28;20245;-75
2021/06/13 01:53:17;;;;;;;3.63;2.83;;;14.20;98.50;;;;;;5047271;28;20187;-73
2021/06/13 01:55:47;;;;;;;4.13;3.55;;;14.20;98.50;;;;;;5051741;28;20187;-73
2021/06/13 01:58:17;;;;;;;2.83;2.60;;;14.20;98.50;;;;;;5048338;28;20203;-74
2021/06/13 02:00:47;;;;;;;2.95;2.85;;;14.20;98.50;;;;;;5027412;28;20199;-73
2021/06/13 02:03:14;;;;;;;5.95;3.08;;;14.20;98.50;;;;;;5048244;28;20186;-74
2021/06/13 02:05:41;;;;;;;3.78;2.92;;;14.10;98.50;;;;;;5045160;28;20194;-73
2021/06/13 02:08:08;;;;;;;3.70;3.50;;;14.10;98.50;;;;;;5046928;28;20179;-74
2021/06/13 02:10:35;;;;;;;3.15;2.95;;;14.10;98.50;;;;;;5054368;28;20197;-73
2021/06/13 02:13:01;;;;;;;3.13;2.97;;;14.00;98.50;;;;;;5047595;28;20183;-74
2021/06/13 02:15:29;;;;;;;3.40;3.20;;;14.00;98.50;;;;;;5049540;28;20202;-74
2021/06/13 02:17:56;;;;;;;3.15;2.95;;;14.00;98.50;;;;;;5056589;28;20207;-74
2021/06/13 02:20:25;;;;;;;2.60;2.50;;;13.90;98.50;;;;;;5048912;28;20294;-73
2021/06/13 02:22:53;;;;;;;2.97;2.83;;;13.90;98.50;;;;;;5049192;28;20232;-73
2021/06/13 02:25:23;;;;;;;3.05;2.85;;;13.90;98.50;;;;;;5050471;28;20270;-73
2021/06/13 02:27:57;;;;;;;2.45;2.35;;;13.90;98.50;;;;;;5051632;28;20188;-72
2021/06/13 02:30:25;;;;;;;2.60;2.50;;;13.90;98.50;;;;;;5045229;28;20738;-73
2021/06/13 02:32:51;;;;;;;2.92;2.78;;;13.80;98.50;;;;;;5057894;28;20257;-73
2021/06/13 02:35:18;;;;;;;2.67;2.58;;;13.80;98.50;;;;;;5047730;28;20192;-72
2021/06/13 02:37:45;;;;;;;7.15;3.25;;;13.80;98.50;;;;;;5034686;28;20989;-73
2021/06/13 02:40:14;;;;;;;3.67;2.65;;;13.80;98.50;;;;;;5046851;28;20187;-73
2021/06/13 02:42:40;;;;;;;3.95;3.65;;;13.80;98.50;;;;;;5049237;28;20192;-73
2021/06/13 02:45:09;;;;;;;2.83;2.72;;;13.80;98.50;;;;;;5047748;28;20183;-72
2021/06/13 02:47:35;;;;;;;3.58;3.28;;;13.70;98.50;;;;;;5048828;28;20214;-73
2021/06/13 02:50:05;;;;;;;6.28;3.78;;;13.70;98.50;;;;;;5045696;28;20206;-72
2021/06/13 02:52:46;;;;;;;6.93;3.17;;;13.60;98.50;;;;;;5027687;28;20684;-73
2021/06/13 02:55:19;;;;;;;3.28;2.97;;;13.60;98.50;;;;;;5053618;28;20676;-73
2021/06/13 02:58:02;;;;;;;3.60;3.40;;;13.60;98.50;;;;;;5052505;28;20199;-72
2021/06/13 03:00:29;;;;;;;3.33;3.15;;;13.60;98.50;;;;;;5049329;28;20186;-74
2021/06/13 03:02:57;;;;;;;5.07;4.07;;;13.60;98.50;;;;;;5050116;28;20184;-73
2021/06/13 03:05:26;;;;;;;5.22;3.72;;;13.60;98.50;;;;;;5045565;28;21331;-72
2021/06/13 03:07:53;;;;;;;4.13;3.80;;;13.60;98.50;;;;;;5048297;28;20187;-73
2021/06/13 03:10:20;;;;;;;3.75;3.47;;;13.60;98.50;;;;;;5056529;28;20881;-73
2021/06/13 03:12:47;;;;;;;3.35;3.15;;;13.60;98.50;;;;;;5049960;28;20184;-73
2021/06/13 03:15:14;;;;;;;4.20;3.92;;;13.60;98.50;;;;;;5050009;28;20180;-74
2021/06/13 03:17:41;;;;;;;3.22;2.80;;;13.60;98.50;;;;;;5059296;28;20207;-72
2021/06/13 03:20:10;;;;;;;2.92;2.58;;;13.60;98.50;;;;;;5059592;28;20269;-73
2021/06/13 03:22:36;;;;;;;3.05;2.78;;;13.60;98.50;;;;;;5055971;28;20214;-73
2021/06/13 03:25:03;;;;;;;3.42;3.22;;;13.60;98.50;;;;;;5054675;28;20191;-72
2021/06/13 03:27:30;;;;;;;3.20;2.97;;;13.60;98.50;;;;;;5041008;28;20188;-72
2021/06/13 03:29:56;;;;;;;2.90;2.80;;;13.70;98.50;;;;;;5049719;28;20221;-72
2021/06/13 03:32:24;;;;;;;3.53;3.28;;;13.70;98.50;;;;;;5043906;28;20221;-72
2021/06/13 03:34:49;;;;;;;2.95;2.78;;;13.70;98.50;;;;;;5049320;28;20249;-71
2021/06/13 03:37:19;;;;;;;7.45;3.05;;;13.70;98.50;;;;;;5052256;28;20646;-74
2021/06/13 03:39:46;;;;;;;2.63;2.53;;;13.70;98.50;;;;;;5045626;28;20191;-71
2021/06/13 03:42:13;;;;;;;2.63;2.42;;;13.80;98.50;;;;;;5046178;28;20214;-73
2021/06/13 03:44:40;;;;;;;2.83;2.65;;;13.80;98.50;;;;;;5048180;28;20212;-74
2021/06/13 03:47:06;;;;;;;2.03;2.03;;;13.80;98.50;;;;;;5045130;28;20188;-72
2021/06/13 03:49:33;;;;;;;2.75;2.45;;;13.80;98.50;;;;;;5048153;28;20176;-72
2021/06/13 03:51:59;;;;;;;2.90;2.70;;;13.90;98.50;;;;;;5049279;28;20184;-72
2021/06/13 03:54:25;;;;;;;2.50;2.40;;;13.90;98.50;;;;;;5049732;28;20184;-74
2021/06/13 03:56:58;;;;;;;2.15;2.08;;;13.90;98.50;;;;;;5049726;28;20553;-73
2021/06/13 03:59:25;;;;;;;4.80;2.33;;;13.90;98.50;;;;;;5049737;28;20184;-73
2021/06/13 04:02:01;;;;;;;2.50;2.33;;;13.90;98.50;;;;;;5048469;28;20263;-73
2021/06/13 04:04:28;;;;;;;1.90;1.90;;;14.00;98.50;;;;;;5047366;28;20249;-74
2021/06/13 04:06:55;;;;;;;4.95;2.70;;;14.00;98.50;;;;;;5051113;28;20183;-74
2021/06/13 04:09:22;;;;;;;2.42;2.33;;;14.00;98.50;;;;;;5047287;28;20203;-74
2021/06/13 04:11:50;;;;;;;2.45;2.17;;;14.00;98.50;;;;;;5055240;28;20175;-73
2021/06/13 04:14:17;;;;;;;2.92;2.60;;;14.00;98.50;;;;;;5048935;28;20179;-73
2021/06/13 04:16:47;;;;;;;2.58;2.28;;;14.00;98.50;;;;;;5054731;28;20563;-73
2021/06/13 04:19:18;;;;;;;2.42;2.33;;;14.10;98.50;;;;;;5053526;28;20196;-75
2021/06/13 04:21:45;;;;;;;3.15;2.95;;;14.10;98.50;;;;;;5053249;28;20192;-74
2021/06/13 04:24:12;;;;;;;2.65;2.47;;;14.10;98.50;;;;;;5049290;28;20176;-73
2021/06/13 04:26:38;;;;;;;3.13;2.92;;;14.20;98.50;;;;;;5056541;28;20190;-73
2021/06/13 04:29:05;;;;;;;3.03;2.45;;;14.20;98.50;;;;;;5046782;28;20627;-73
2021/06/13 04:31:31;;;;;;;3.00;2.28;;;14.20;98.50;;;;;;5046838;28;20565;-73
2021/06/13 04:33:58;;;;;;;2.42;2.33;;;14.30;98.50;;;;;;5039061;28;20188;-73
2021/06/13 04:36:24;;;;;;;2.72;2.63;;;14.30;98.50;;;;;;5050410;28;20731;-72
2021/06/13 04:38:50;;;;;;;2.72;2.55;;;14.30;98.50;;;;;;5048269;28;20220;-72
2021/06/13 04:41:16;;;;;;;4.95;2.58;;;14.40;98.50;;;;;;5054130;28;20210;-73
2021/06/13 04:43:42;;;;;;;3.47;2.75;;;14.40;98.50;;;;;;5047212;28;20195;-72
2021/06/13 04:46:12;;;;;;;3.58;2.45;;;14.50;98.50;;;;;;5046722;28;20180;-72
2021/06/13 04:48:38;;;;;;;4.70;2.67;;;14.50;98.50;;;;;;5044343;28;20257;-72
2021/06/13 04:51:06;;;;;;;2.85;2.75;;;14.60;98.50;;;;;;5043569;28;20284;-72
2021/06/13 04:53:54;;;;;;;3.33;2.88;;;14.60;98.50;;;;;;5039722;28;20184;-72
2021/06/13 04:56:43;;;;;;;3.33;3.00;;;14.70;98.50;;;;;;5045060;28;20184;-73
2021/06/13 04:59:09;;;;;;;4.22;2.75;;;14.80;98.50;;;;;;5041197;28;20270;-72
2021/06/13 05:01:35;;;;;;;2.80;2.60;;;14.90;98.50;;;;;;5043300;28;20182;-72
2021/06/13 05:04:02;;;;;;;2.90;2.72;;;15.00;98.50;;;;;;5042177;28;20206;-73
2021/06/13 05:06:28;;;;;;;2.50;2.50;;;15.10;98.50;;;;;;5027048;28;20764;-72
2021/06/13 05:08:54;;;;;;;2.78;2.67;;;15.20;98.50;;;;;;5054790;28;20187;-73
2021/06/13 05:11:20;;;;;;;3.20;3.05;;;15.30;98.50;;;;;;5050198;28;20677;-71
2021/06/13 05:13:46;;;;;;;3.55;3.40;;;15.40;98.50;;;;;;5048128;28;20182;-71
2021/06/13 05:16:12;;;;;;;3.92;3.63;;;15.50;98.50;;;;;;5052983;28;20191;-73
2021/06/13 05:18:37;;;;;;;4.57;3.40;;;15.60;98.50;;;;;;5048993;28;20219;-72
2021/06/13 05:21:04;;;;;;;6.40;3.35;;;15.70;98.50;;;;;;5054241;28;20630;-72
2021/06/13 05:23:30;;;;;;;3.70;3.30;;;15.80;98.30;;;;;;5047762;28;20237;-72
2021/06/13 05:25:58;;;;;;;3.90;3.60;;;15.90;98.30;;;;;;5048819;28;20191;-73
2021/06/13 05:28:24;;;;;;;3.65;3.45;;;16.00;98.30;;;;;;5047849;28;20270;-72
2021/06/13 05:30:50;;;;;;;3.70;3.40;;;16.10;98.30;;;;;;5048376;28;20187;-71
2021/06/13 05:33:17;;;;;;;3.20;3.10;;;16.20;97.70;;;;;;5053025;28;20225;-72
2021/06/13 05:35:43;;;;;;;4.05;3.70;;;16.30;97.00;;;;;;5046588;28;20283;-72
2021/06/13 05:38:10;;;;;;;3.83;3.30;;;16.40;96.70;;;;;;5046735;28;20306;-72
2021/06/13 05:40:37;;;;;;;4.07;3.78;;;16.50;96.30;;;;;;5049225;28;20202;-71
2021/06/13 05:43:05;;;;;;;6.20;3.42;;;16.60;96.10;;;;;;5047944;28;20190;-73
2021/06/13 05:45:32;;;;;;;3.67;3.50;;;16.80;95.90;;;;;;5046893;28;20175;-72
2021/06/13 05:47:58;;;;;;;3.80;3.60;;;16.90;95.40;;;;;;5048840;28;20186;-73
2021/06/13 05:50:25;;;;;;;3.65;3.42;;;17.00;94.90;;;;;;5029802;28;20187;-72
2021/06/13 05:52:51;;;;;;;4.10;3.90;;;17.10;94.50;;;;;;5045596;28;20188;-72
2021/06/13 05:55:18;;;;;;;4.07;3.70;;;17.20;94.60;;;;;;5046007;28;20184;-72
2021/06/13 05:57:44;;;;;;;3.88;3.67;;;17.30;94.40;;;;;;5045159;28;20574;-73
2021/06/13 06:00:22;;;;;;;3.70;3.50;;;17.40;94.30;;;;;;5046942;28;20180;-72
2021/06/13 06:02:48;;;;;;;4.18;3.88;;;17.50;94.20;;;;;;5040629;28;20179;-71
2021/06/13 06:05:16;;;;;;;3.50;3.30;;;17.70;94.10;;;;;;5045890;28;20206;-71
2021/06/13 06:07:42;;;;;;;4.47;3.65;;;17.80;94.10;;;;;;5046608;28;20180;-73
2021/06/13 06:10:10;;;;;;;3.58;3.38;;;17.90;93.80;;;;;;5046218;28;20195;-73
2021/06/13 06:12:37;;;;;;;4.57;4.28;;;18.00;93.10;;;;;;5046171;28;20175;-73
2021/06/13 06:15:06;;;;;;;3.83;3.63;;;18.10;92.50;;;;;;5046651;28;20180;-71
2021/06/13 06:17:31;;;;;;;3.50;3.25;;;18.30;92.60;;;;;;5044969;28;20203;-71
2021/06/13 06:19:57;;;;;;;3.92;3.72;;;18.40;92.10;;;;;;5045007;28;20191;-71
2021/06/13 06:22:23;;;;;;;4.18;3.97;;;18.40;91.40;;;;;;5046012;28;20227;-72
2021/06/13 06:24:49;;;;;;;6.90;4.20;;;18.50;91.50;;;;;;5051809;28;20175;-72
2021/06/13 06:27:15;;;;;;;4.18;3.90;;;18.50;91.50;;;;;;5030069;28;20194;-71
2021/06/13 06:29:40;;;;;;;4.60;4.28;;;18.60;91.80;;;;;;5038944;28;20263;-71
2021/06/13 06:32:07;;;;;;;6.07;3.92;;;18.60;91.00;;;;;;5045871;28;20266;-73
2021/06/13 06:34:32;;;;;;;4.10;3.85;;;18.70;91.10;;;;;;5045179;28;20187;-74
2021/06/13 06:36:58;;;;;;;4.75;4.25;;;18.80;91.20;;;;;;5051551;28;20216;-72
2021/06/13 06:39:24;;;;;;;5.35;4.57;;;19.00;91.10;;;;;;5047396;28;20187;-72
2021/06/13 06:41:50;;;;;;;5.78;4.40;;;19.10;90.20;;;;;;5047614;28;20665;-70
2021/06/13 06:44:15;;;;;;;4.40;4.13;;;19.20;89.90;;;;;;5043335;28;20188;-71
2021/06/13 06:46:42;;;;;;;4.20;3.83;;;19.40;89.70;;;;;;5029189;28;20192;-74
2021/06/13 06:49:08;;;;;;;5.57;4.20;;;19.50;89.20;;;;;;5053098;28;20221;-75
2021/06/13 06:51:35;;;;;;;5.07;4.65;;;19.60;88.90;;;;;;5044481;28;20185;-73
2021/06/13 06:54:01;;;;;;;4.75;4.35;;;19.80;88.20;;;;;;5040028;28;20188;-75
2021/06/13 06:56:28;;;;;;;5.93;4.70;;;19.90;88.20;;;;;;5042104;28;20190;-73
2021/06/13 06:58:55;;;;;;;4.80;4.50;;;20.00;88.00;;;;;;5049003;28;20198;-73
2021/06/13 07:01:21;;;;;;;5.45;4.55;;;20.20;88.00;;;;;;5045847;28;20206;-72
2021/06/13 07:03:47;;;;;;;5.22;4.82;;;20.30;87.00;;;;;;5045350;28;20184;-72
2021/06/13 07:06:13;;;;;;;5.45;4.50;;;20.50;86.60;;;;;;5046385;28;20191;-73
2021/06/13 07:08:39;;;;;;;5.10;4.60;;;20.60;86.80;;;;;;5045190;28;20195;-73
2021/06/13 07:11:05;;;;;;;5.05;4.53;;;20.80;86.30;;;;;;5045609;28;20845;-73
2021/06/13 07:13:33;;;;;;;5.13;4.65;;;21.00;85.80;;;;;;5042833;28;20183;-73
2021/06/13 07:15:59;;;;;;;4.53;4.18;;;21.10;85.30;;;;;;5044943;28;20318;-72
2021/06/13 07:18:26;;;;;;;2.92;2.83;;;21.20;85.00;;;;;;5028582;28;20208;-73
2021/06/13 07:20:53;;;;;;;2.80;2.40;;;21.30;82.00;;;;;;5027914;28;20195;-72
2021/06/13 07:23:19;;;;;;;2.22;2.00;;;21.40;80.40;;;;;;5046429;28;20183;-73
2021/06/13 07:25:46;;;;;;;2.88;2.78;;;21.50;78.60;;;;;;5046700;28;20179;-72
2021/06/13 07:28:13;;;;;;;2.55;2.45;;;21.60;77.60;;;;;;5045733;28;20321;-73
2021/06/13 07:30:40;;;;;;;3.03;2.90;;;21.60;78.70;;;;;;5045494;28;20667;-73
2021/06/13 07:33:06;;;;;;;3.38;3.17;;;21.50;77.90;;;;;;5045636;28;20180;-73
2021/06/13 07:35:32;;;;;;;3.58;3.38;;;21.50;78.70;;;;;;5045834;28;20168;-73
2021/06/13 07:38:00;;;;;;;2.90;2.80;;;21.50;79.20;;;;;;5045104;28;20720;-72
2021/06/13 07:40:27;;;;;;;3.67;3.55;;;21.60;79.90;;;;;;5043308;28;20180;-71
2021/06/13 07:42:53;;;;;;;3.63;3.53;;;21.60;78.50;;;;;;5049077;28;20683;-73
2021/06/13 07:45:19;;;;;;;6.13;3.65;;;21.60;78.10;;;;;;5049015;28;20184;-73
2021/06/13 07:47:45;;;;;;;3.45;3.35;;;21.60;78.00;;;;;;5048919;28;20686;-72
2021/06/13 07:50:13;;;;;;;3.20;3.10;;;21.60;78.20;;;;;;5049477;28;20248;-71
2021/06/13 07:52:39;;;;;;;3.58;3.38;;;21.70;78.50;;;;;;5040042;28;20184;-71
2021/06/13 07:55:06;;;;;;;3.63;3.45;;;21.70;78.10;;;;;;5051994;28;20190;-72
2021/06/13 07:57:32;;;;;;;3.60;3.50;;;21.80;78.30;;;;;;5045534;28;20601;-71
2021/06/13 07:59:58;;;;;;;4.55;4.15;;;22.00;78.00;;;;;;5042177;28;20180;-70
2021/06/13 08:02:24;;;;;;;3.80;3.60;;;22.20;77.70;;;;;;5045992;28;20585;-71
2021/06/13 08:04:55;;;;;;;3.53;3.35;;;22.30;77.60;;;;;;5047427;28;20952;-71
2021/06/13 08:07:21;;;;;;;4.10;3.90;;;22.40;76.90;;;;;;5030228;28;20204;-71
2021/06/13 08:09:46;;;;;;;3.95;3.85;;;22.40;76.90;;;;;;5048271;28;22114;-71
2021/06/13 08:12:12;;;;;;;4.75;4.35;;;22.40;77.00;;;;;;5046537;28;20186;-71
2021/06/13 08:14:40;;;;;;;3.83;3.63;;;22.50;76.80;;;;;;5048211;28;20227;-69
2021/06/13 08:17:06;;;;;;;3.90;3.70;;;22.60;76.70;;;;;;5024844;28;20215;-70
2021/06/13 08:19:32;;;;;;;4.47;4.28;;;22.60;76.90;;;;;;5047775;28;20192;-71
2021/06/13 08:21:58;;;;;;;4.22;4.03;;;22.60;75.40;;;;;;5047840;28;20669;-70
2021/06/13 08:24:23;;;;;;;4.90;4.70;;;22.60;76.60;;;;;;5048260;28;20191;-72
2021/06/13 08:26:50;;;;;;;5.35;5.10;;;22.60;76.50;;;;;;5048520;28;20668;-73
2021/06/13 08:29:16;;;;;;;9.05;5.85;;;22.60;75.80;;;;;;5030202;28;20725;-73
2021/06/13 08:31:42;;;;;;;5.15;4.75;;;22.50;76.20;;;;;;5048659;28;20180;-72
2021/06/13 08:34:07;;;;;;;5.93;5.57;;;22.40;76.60;;;;;;5048012;28;20225;-72
2021/06/13 08:36:33;;;;;;;5.72;5.18;;;22.20;76.60;;;;;;5047669;28;20688;-72
2021/06/13 08:38:59;;;;;;;5.60;5.20;;;22.00;77.10;;;;;;5047849;28;20215;-73
2021/06/13 08:41:25;;;;;;;5.38;5.03;;;22.00;77.70;;;;;;5048074;28;20694;-73
2021/06/13 08:43:52;;;;;;;6.18;5.68;;;21.80;77.80;;;;;;5047532;28;20230;-73
2021/06/13 08:46:20;;;;;;;4.90;4.60;;;21.70;78.10;;;;;;5047812;28;20188;-72
2021/06/13 08:48:47;;;;;;;5.10;4.80;;;21.60;78.60;;;;;;5047368;28;20211;-73
2021/06/13 08:51:13;;;;;;;5.15;4.82;;;21.50;78.80;;;;;;5046414;28;20673;-71
2021/06/13 08:53:44;;;;;;;5.50;5.00;;;21.50;79.10;;;;;;5044397;28;20572;-72
2021/06/13 08:56:14;;;;;;;7.22;5.00;;;21.40;78.80;;;;;;5021359;28;20187;-72
2021/06/13 08:58:41;;;;;;;5.43;5.00;;;21.30;78.70;;;;;;5046275;28;20207;-73
2021/06/13 09:01:09;;;;;;;6.03;5.63;;;21.30;79.00;;;;;;5046646;28;20188;-75
2021/06/13 09:03:35;;;;;;;5.10;4.90;;;21.30;79.10;;;;;;5029664;28;20179;-75
2021/06/13 09:06:01;;;;;;;5.22;4.97;;;21.20;78.90;;;;;;5046540;28;20206;-74
2021/06/13 09:08:37;;;;;;;5.85;5.45;;;21.00;78.90;;;;;;5046381;28;20176;-74
2021/06/13 09:11:04;;;;;;;5.28;5.07;;;20.90;79.20;;;;;;5048487;28;20228;-71
2021/06/13 09:13:32;;;;;;;5.28;4.97;;;20.70;79.30;;;;;;5044024;28;20176;-70
2021/06/13 09:16:00;;;;;;;5.40;5.10;;;20.60;79.90;;;;;;5047215;28;20187;-71
2021/06/13 09:18:39;;;;;;;5.22;4.85;;;20.60;80.40;;;;;;5034025;28;20225;-71
2021/06/13 09:21:10;;;;;;;4.05;3.92;;;20.50;80.80;;;;;;5041274;28;20289;-70
2021/06/13 09:23:38;;;;;;;4.30;4.00;;;20.50;81.50;;;;;;5044059;28;20795;-72
2021/06/13 09:26:09;;;;;;;3.58;3.47;;;20.40;82.20;;;;;;5043031;28;20221;-71
2021/06/13 09:28:38;;;;;;;5.63;3.67;;;20.30;83.00;;;;;;5042608;28;20187;-70
2021/06/13 09:31:05;;;;;;;3.42;3.22;;;20.10;83.60;;;;;;5042838;28;20184;-70
2021/06/13 09:33:35;;;;;;;2.90;2.80;;;19.90;83.90;;;;;;5042798;28;20180;-71
2021/06/13 09:36:05;;;;;;;3.05;2.95;;;19.80;85.20;;;;;;5041731;28;20175;-71
2021/06/13 09:38:33;;;;;;;2.38;2.38;;;19.70;86.30;;;;;;5045614;28;20210;-70
2021/06/13 09:41:06;;;;;;;2.72;2.63;;;19.40;87.00;;;;;;5039112;28;20292;-71
2021/06/13 09:43:44;;;;;;;2.15;2.10;;;19.30;87.80;;;;;;5021053;28;20233;-71
2021/06/13 09:46:38;;;;;;;2.53;2.42;;;19.10;88.10;;;;;;5023203;28;20749;-71
2021/06/13 09:49:10;;;;;;;3.28;2.25;;;19.00;89.30;;;;;;5022531;28;20194;-71
2021/06/13 09:51:40;;;;;;;2.50;2.35;;;18.90;90.00;;;;;;5039468;28;20187;-72
2021/06/13 09:54:08;;;;;;;4.97;1.90;;;18.80;90.30;;;;;;5038305;28;20263;-72
2021/06/13 09:56:39;;;;;;;2.10;2.10;;;18.80;90.10;;;;;;5035938;28;20700;-71
2021/06/13 09:59:12;;;;;;;1.95;1.88;;;18.70;90.80;;;;;;5022038;28;20621;-71
2021/06/13 10:01:40;;;;;;;1.58;1.58;;;18.60;90.80;;;;;;5044364;28;20270;-72
2021/06/13 10:04:29;;;;;;;1.90;1.90;;;18.60;90.70;;;;;;5042946;28;20191;-72
2021/06/13 10:06:58;;;;;;;2.10;2.00;;;18.60;90.60;;;;;;5024782;28;20601;-74
2021/06/13 10:09:36;;;;;;;1.80;1.70;;;18.60;91.00;;;;;;5022942;28;20595;-71
2021/06/13 10:12:11;;;;;;;3.33;2.08;;;18.60;90.60;;;;;;5039729;28;20198;-76
2021/06/13 10:14:40;;;;;;;1.38;1.38;;;18.60;90.80;;;;;;5041268;28;20180;-72
2021/06/13 10:17:06;;;;;;;1.73;1.70;;;18.60;90.80;;;;;;5043716;28;20312;-72
2021/06/13 10:19:49;;;;;;;1.70;1.70;;;18.50;91.00;;;;;;5027809;28;20179;-73
2021/06/13 10:22:17;;;;;;;2.30;1.75;;;18.50;90.60;;;;;;5043335;28;20183;-73
2021/06/13 10:24:44;;;;;;;1.60;1.60;;;18.50;91.20;;;;;;5043385;28;20184;-72
2021/06/13 10:27:15;;;;;;;2.13;2.13;;;18.50;91.30;;;;;;5044247;28;20195;-73
2021/06/13 10:29:43;;;;;;;2.15;2.15;;;18.40;91.20;;;;;;5045133;28;20642;-74
2021/06/13 10:32:10;;;;;;;1.83;1.83;;;18.40;91.30;;;;;;5044937;28;20179;-73
2021/06/13 10:34:36;;;;;;;1.73;1.63;;;18.40;91.70;;;;;;5042251;28;20626;-73
2021/06/13 10:37:05;;;;;;;1.50;1.50;;;18.30;91.90;;;;;;5045352;28;20215;-73
2021/06/13 10:39:33;;;;;;;2.83;1.95;;;18.30;92.00;;;;;;5045991;28;20191;-73
2021/06/13 10:42:01;;;;;;;1.88;1.77;;;18.30;91.90;;;;;;5046194;28;20228;-73
2021/06/13 10:44:30;;;;;;;1.38;1.38;;;18.20;91.40;;;;;;5045003;28;20613;-76
2021/06/13 10:47:11;;;;;;;1.55;1.55;;;18.20;91.40;;;;;;5024171;28;20195;-76
2021/06/13 10:49:40;;;;;;;1.58;1.58;;;18.20;91.90;;;;;;5027419;28;20187;-76
2021/06/13 10:52:09;;;;;;;1.60;1.60;;;18.20;91.60;;;;;;5042517;28;20183;-76
2021/06/13 10:54:36;;;;;;;3.10;1.63;;;18.20;92.10;;;;;;5045537;28;20175;-76
2021/06/13 10:57:25;;;;;;;1.40;1.40;;;18.10;91.40;;;;;;5029204;28;20211;-76
2021/06/13 10:59:56;;;;;;;1.83;1.73;;;18.10;91.80;;;;;;4963177;28;20246;-78
2021/06/13 11:02:55;;;;;;;1.63;1.63;;;18.10;92.30;;;;;;4962748;28;20566;-78
2021/06/13 11:05:39;;;;;;;1.50;1.50;;;18.10;92.10;;;;;;4947548;28;20640;-76
2021/06/13 11:08:05;;;;;;;1.40;1.40;;;18.20;92.20;;;;;;4964947;28;20189;-77
2021/06/13 11:10:34;;;;;;;1.17;1.17;;;18.20;91.90;;;;;;4963113;28;20353;-74
2021/06/13 11:13:09;;;;;;;1.20;1.20;;;18.20;91.70;;;;;;4963697;28;20210;-75
2021/06/13 11:18:08;;;;;;;1.05;1.05;;;18.30;91.60;;;;;;4964299;28;20225;-73
2021/06/13 11:23:12;;;;;;;0.98;0.98;;;18.50;91.30;;;;;;4966044;28;20198;-73
2021/06/13 11:25:40;;;;;;;1.60;1.60;;;18.60;90.70;;;;;;4968627;28;20651;-75
2021/06/13 11:28:12;;;;;;;0.93;0.93;;;18.80;89.90;;;;;;4968097;28;20213;-73
2021/06/13 11:30:41;;;;;;;0.80;0.80;;;18.90;89.50;;;;;;4968084;28;20186;-73
2021/06/13 11:33:08;;;;;;;0.90;0.90;;;19.00;89.10;;;;;;4968345;28;20191;-72
2021/06/13 11:35:37;;;;;;;1.10;1.10;;;19.10;89.20;;;;;;4961486;28;20251;-73
2021/06/13 11:38:08;;;;;;;1.25;1.25;;;19.10;88.60;;;;;;5028347;28;20622;-75
2021/06/13 11:40:36;;;;;;;1.50;1.40;;;19.20;87.70;;;;;;5054417;28;20239;-72
2021/06/13 11:43:16;;;;;;;0.85;0.85;;;19.20;88.10;;;;;;5030713;28;20219;-72
2021/06/13 11:45:55;;;;;;;1.00;1.00;;;19.20;87.50;;;;;;5047423;28;20179;-71
2021/06/13 11:48:26;;;;;;;1.08;1.08;;;19.30;86.70;;;;;;5048591;28;20621;-71
2021/06/13 11:51:10;;;;;;;1.10;1.10;;;19.30;86.50;;;;;;5048054;28;20194;-72
2021/06/13 11:54:03;;;;;;;1.20;1.20;;;19.30;85.80;;;;;;5053353;28;20176;-72
2021/06/13 11:56:34;;;;;;;1.27;1.27;;;19.30;86.10;;;;;;5047652;28;20216;-72
2021/06/13 11:59:09;;;;;;;1.10;1.10;;;19.20;85.40;;;;;;5028999;28;20196;-72
2021/06/13 12:01:37;;;;;;;1.30;1.30;;;19.20;85.30;;;;;;5045412;28;20667;-74
2021/06/13 12:04:10;;;;;;;1.10;1.10;;;19.20;86.00;;;;;;5042847;28;20279;-72
2021/06/13 12:06:37;;;;;;;1.38;1.38;;;19.20;85.80;;;;;;5054300;28;20229;-72
2021/06/13 12:09:16;;;;;;;0.88;0.88;;;19.10;85.70;;;;;;5034388;28;20386;-73
2021/06/13 12:11:45;;;;;;;1.20;1.08;;;19.20;85.70;;;;;;5050202;28;20172;-74
2021/06/13 12:14:44;;;;;;;1.38;1.38;;;19.20;85.20;;;;;;5029250;28;20634;-73
2021/06/13 12:17:13;;;;;;;1.38;1.38;;;19.20;85.20;;;;;;5044766;28;20988;-72
2021/06/13 12:19:40;;;;;;;1.15;1.13;;;19.10;84.30;;;;;;5028787;28;20314;-72
2021/06/13 12:22:13;;;;;;;1.20;1.20;;;19.10;82.30;;;;;;5043889;28;20184;-72
2021/06/13 12:27:22;;;;;;;1.38;1.38;;;19.00;81.30;;;;;;5040750;28;20188;-70
2021/06/13 12:29:48;;;;;;;4.00;1.30;;;18.90;81.60;;;;;;5023043;28;20227;-73
2021/06/13 12:32:15;;;;;;;1.63;1.42;;;18.90;81.90;;;;;;5041999;28;20184;-72
2021/06/13 12:34:41;;;;;;;1.90;1.90;;;18.90;81.60;;;;;;5039885;28;20242;-73
2021/06/13 12:37:16;;;;;;;1.50;1.48;;;18.90;81.10;;;;;;5044325;28;20218;-72
2021/06/13 12:39:52;;;;;;;1.85;1.85;;;18.80;79.90;;;;;;5044508;28;20337;-72
2021/06/13 12:42:18;;;;;;;2.10;2.10;;;18.80;80.10;;;;;;5046367;28;20211;-74
2021/06/13 12:44:43;;;;;;;2.72;2.53;;;18.70;80.20;;;;;;5044337;28;20655;-72
2021/06/13 12:47:09;;;;;;;4.10;1.92;;;18.70;80.30;;;;;;5040930;28;20694;-72
2021/06/13 12:49:43;;;;;;;1.88;1.88;;;18.60;80.50;;;;;;5048548;28;20179;-72
2021/06/13 12:52:15;;;;;;;1.77;1.77;;;18.70;80.40;;;;;;5041792;28;20191;-73
2021/06/13 12:54:42;;;;;;;2.08;1.95;;;18.60;80.50;;;;;;5042330;28;20180;-73
2021/06/13 12:57:09;;;;;;;3.65;1.98;;;18.70;80.80;;;;;;5044029;28;20212;-72
2021/06/13 12:59:38;;;;;;;3.28;2.05;;;18.80;80.80;;;;;;5024280;28;20278;-72
2021/06/13 13:02:09;;;;;;;2.10;2.10;;;18.80;80.40;;;;;;5043515;28;20184;-71
2021/06/13 13:04:55;;;;;;;2.30;2.30;;;18.90;80.30;;;;;;5041955;28;20259;-73